Impacts TAF Board
For situational awareness. Not to be used for flight planning purposes.
IDs:

KPHX - Phoenix/Sky Harbor, AZ, US

Issued at 1432 UTC 30 Oct 2020
Updated at 1659 UTC 30 Oct 2020
Potential Impact None Slight Moderate High
Time1651Z 30/17Z 30/18Z 30/19Z 30/20Z 30/21Z 30/22Z 30/23Z 31/00Z 31/01Z 31/02Z 31/03Z 31/04Z 31/05Z>>
Type OBS PRVL PRVL PRVL PRVL PRVL PRVL PRVL PRVL PRVL PRVL PRVL PRVL PRVL
VIS 10 >6 >6 >6 >6 >6 >6 >6 >6 >6 >6 >6 >6 >6
CIG -- -- -- -- -- -- -- -- -- -- -- -- -- --
Cover FEW FEW FEW FEW FEW FEW FEW FEW FEW FEW FEW FEW FEW FEW
FltCat VFR VFR VFR VFR VFR VFR VFR VFR VFR VFR VFR VFR VFR VFR
WX -- -- -- -- -- -- -- -- -- -- -- -- -- --
WDir 70 120 120 120 120 120 VRB VRB VRB VRB VRB VRB VRB VRB
WSpd 10 4 4 4 4 4 5 5 5 5 5 5 5 5
WGst -- -- -- -- -- -- -- -- -- -- -- -- -- --
Raw TAF
KPHX 301432Z 3015/3118 12004KT P6SM FEW180 FEW250
  FM302200 VRB05KT P6SM FEW250
  FM310900 11005KT P6SM SCT250


Raw METAR
KPHX 301651Z 07010KT 10SM FEW200 25/01 A3004 RMK AO2 SLP159 T02500006
KPHX 301551Z 09009KT 10SM FEW200 23/02 A3005 RMK AO2 SLP162 T02280017
KPHX 301451Z 12004KT 10SM FEW200 19/02 A3003 RMK AO2 SLP158 T01940017 53011 $
KPHX 301351Z 14003KT 10SM FEW200 FEW250 17/01 A3001 RMK AO2 SLP151 T01670011 $

METAR Board
Radar Display
Forecast Discussion
For situational awareness. Not to be used for flight planning purposes.